Aérodrome :
LOGIN :

S'inscrire | Disclaimer

   EN    FR    IT 

 










Légende :    VFR   VFR Marginal   IFR   IFR Intensif   IFR Très Intensif
Visi : 
Plafond : 
>= 8 km
>= 3000ft
5 à 8 km
1000 à 3000 ft
1500m à 5 km
500 à 1000 ft
800 à 1500m
200 à 500 ft
< 800m
< 200 ft
Symboles :   Orages  Brouillard  Fortes neiges  Fortes précipitations  Vent > 20 kt
SIGMETs :   Divers  Orages  Givrage  Turbulence  Onde Orograph.  Cendres Volcan.







- Altitude de l'aérodrome : 245 ft
- Code IATA : BIQ
- Voir les cartes d'approche


LFBZ - Biarritz

DERNIER METAR :
  • 231630Z AUTO 31003KT 270V340 CAVOK 15/11 Q1030 NOSIG

METARs EXPIRÉS :
  • 231600Z AUTO 30004KT 9999 FEW017 15/11 Q1030 NOSIG
  • 231530Z AUTO 31006KT 280V340 9999 SCT017 SCT160 15/11 Q1030 NOSIG
  • 231500Z AUTO 30006KT 260V340 9999 SCT017 16/12 Q1030 NOSIG
  • 231430Z AUTO 31006KT 270V340 9999 FEW016 16/12 Q1030 NOSIG
  • 231400Z AUTO 29008KT 9999 FEW017 16/12 Q1030 NOSIG

TAF TAF LFBZ
Valide du 23 à 12h jusqu'au 24 à 12h UTC


231100Z 2312/2412 VRB03KT CAVOK
TEMPO 2313/2317 30010KT
BECMG 2320/2322 1000 BCFG
PROB30
TEMPO 2400/2409 18005KT 0700 FG OVC005
Pas de NOTAMs connus pour ce terrain.



MET'MAP, la Météo Aéronautique d'un coup d'oeil ! - Copyright ORBIFLY Décembre 2007 - Disclaimer

ORBIFLY MET'MAP TEAM :

Programmation & Développement : Alexandra Zaïnal
Conception & Développement : Baudouin d'Aumeries
Co-Programmation & Développement : Marc-Olivier Méhu
Soutien technique & logistique : Manuel Goepfert

Contact : metmap@orbifly.com




SOURCES & CREDITS :

   NOAA